createdAt,value
2023-06-29T00:01:57.934Z,3.00
2023-06-29T00:04:26.904Z,2.75
2023-06-29T00:06:55.620Z,3.15
2023-06-29T00:09:23.532Z,4.53
2023-06-29T00:11:50.625Z,3.70
2023-06-29T00:14:17.541Z,3.30
2023-06-29T00:16:44.428Z,3.60
2023-06-29T00:19:12.960Z,3.78
2023-06-29T00:21:40.208Z,4.47
2023-06-29T00:24:07.344Z,4.07
2023-06-29T00:26:34.502Z,6.13
2023-06-29T00:29:01.461Z,5.35
2023-06-29T00:31:28.462Z,6.47
2023-06-29T00:33:55.256Z,4.00
2023-06-29T00:36:22.175Z,3.83
2023-06-29T00:38:49.276Z,6.53
2023-06-29T00:41:16.310Z,3.70
2023-06-29T00:43:44.198Z,4.45
2023-06-29T00:46:12.221Z,4.55
2023-06-29T00:48:39.179Z,4.60
2023-06-29T00:51:06.580Z,3.72
2023-06-29T00:53:33.506Z,3.70
2023-06-29T00:56:03.108Z,4.65
2023-06-29T00:58:30.428Z,3.65
2023-06-29T01:00:58.823Z,5.85
2023-06-29T01:03:25.742Z,4.45
2023-06-29T01:05:57.039Z,3.60
2023-06-29T01:08:32.634Z,4.00
2023-06-29T01:11:01.572Z,4.13
2023-06-29T01:13:28.936Z,3.88
2023-06-29T01:15:56.612Z,3.97
2023-06-29T01:18:25.237Z,4.10
2023-06-29T01:20:53.424Z,3.35
2023-06-29T01:23:27.976Z,3.65
2023-06-29T01:25:56.436Z,3.72
2023-06-29T01:28:23.235Z,4.75
2023-06-29T01:30:51.213Z,3.83
2023-06-29T01:33:21.316Z,4.80
2023-06-29T01:35:49.631Z,4.57
2023-06-29T01:38:26.826Z,4.25
2023-06-29T01:40:56.196Z,5.07
2023-06-29T01:43:23.572Z,4.05
2023-06-29T01:45:50.944Z,4.25
2023-06-29T01:48:18.925Z,4.72
2023-06-29T01:50:45.760Z,3.70
2023-06-29T01:53:12.448Z,4.55
2023-06-29T01:55:39.249Z,4.15
2023-06-29T01:58:06.058Z,4.00
2023-06-29T02:00:32.815Z,4.72
2023-06-29T02:03:00.636Z,6.32
2023-06-29T02:05:27.669Z,5.70
2023-06-29T02:07:54.552Z,4.88
2023-06-29T02:10:21.443Z,4.72
2023-06-29T02:12:48.331Z,4.55
2023-06-29T02:15:15.235Z,4.65
2023-06-29T02:17:42.368Z,5.50
2023-06-29T02:20:11.965Z,3.97
2023-06-29T02:22:38.965Z,5.13
2023-06-29T02:25:06.061Z,4.18
2023-06-29T02:27:33.120Z,4.95
2023-06-29T02:29:59.849Z,4.13
2023-06-29T02:32:26.737Z,4.38
2023-06-29T02:34:53.736Z,4.22
2023-06-29T02:37:20.801Z,5.05
2023-06-29T02:39:47.567Z,4.07
2023-06-29T02:42:14.429Z,4.38
2023-06-29T02:44:41.183Z,4.72
2023-06-29T02:47:08.096Z,5.50
2023-06-29T02:49:35.044Z,6.13
2023-06-29T02:52:01.995Z,5.65
2023-06-29T02:54:28.753Z,4.35
2023-06-29T02:56:57.573Z,4.65
2023-06-29T02:59:24.495Z,4.93
2023-06-29T03:01:51.235Z,4.53
2023-06-29T03:04:18.027Z,5.03
2023-06-29T03:06:44.868Z,4.28
2023-06-29T03:09:11.580Z,6.55
2023-06-29T03:11:38.270Z,4.55
2023-06-29T03:14:05.009Z,5.82
2023-06-29T03:16:32.011Z,5.53
2023-06-29T03:18:58.695Z,5.55
2023-06-29T03:21:25.544Z,5.20
2023-06-29T03:23:52.278Z,4.60
2023-06-29T03:26:19.001Z,4.57
2023-06-29T03:28:45.876Z,4.18
2023-06-29T03:31:12.822Z,4.82
2023-06-29T03:33:39.633Z,6.63
2023-06-29T03:36:10.520Z,4.30
2023-06-29T03:38:37.369Z,4.45
2023-06-29T03:41:04.205Z,4.97
2023-06-29T03:43:30.950Z,4.80
2023-06-29T03:45:59.648Z,4.43
2023-06-29T03:48:29.005Z,4.45
2023-06-29T03:50:58.262Z,8.05
2023-06-29T03:53:25.335Z,4.63
2023-06-29T03:55:52.054Z,4.93
2023-06-29T03:58:18.787Z,4.88
2023-06-29T04:00:45.628Z,4.47
2023-06-29T04:03:12.647Z,5.18
2023-06-29T04:05:39.564Z,5.65
2023-06-29T04:08:06.545Z,4.80
2023-06-29T04:10:34.599Z,4.90
2023-06-29T04:13:01.941Z,5.75
2023-06-29T04:15:28.736Z,5.38
2023-06-29T04:17:55.605Z,4.68
2023-06-29T04:20:22.716Z,7.10
2023-06-29T04:22:49.507Z,8.20
2023-06-29T04:25:16.395Z,5.70
2023-06-29T04:27:43.878Z,5.47
2023-06-29T04:30:12.267Z,5.38
2023-06-29T04:32:39.992Z,5.25
2023-06-29T04:35:10.073Z,5.65
2023-06-29T04:37:43.627Z,4.82
2023-06-29T04:40:11.777Z,5.13
2023-06-29T04:42:46.144Z,4.90
2023-06-29T04:45:25.160Z,5.40
2023-06-29T04:47:52.248Z,6.55
2023-06-29T04:50:26.163Z,5.13
2023-06-29T04:52:56.879Z,4.90
2023-06-29T04:55:23.946Z,4.57
2023-06-29T04:57:50.748Z,4.53
2023-06-29T05:00:18.217Z,5.97
2023-06-29T05:02:45.168Z,5.82
2023-06-29T05:05:12.796Z,5.63
2023-06-29T05:07:39.791Z,5.70
2023-06-29T05:10:07.050Z,5.15
2023-06-29T05:12:37.034Z,8.60
2023-06-29T05:15:04.128Z,6.43
2023-06-29T05:17:33.722Z,5.97
2023-06-29T05:20:04.684Z,6.35
2023-06-29T05:22:31.439Z,5.55
2023-06-29T05:24:58.485Z,7.28
2023-06-29T05:27:25.325Z,6.13
2023-06-29T05:29:52.373Z,5.13
2023-06-29T05:32:19.134Z,4.68
2023-06-29T05:34:45.944Z,5.07
2023-06-29T05:37:12.723Z,5.45
2023-06-29T05:39:39.860Z,5.00
2023-06-29T05:42:07.507Z,6.30
2023-06-29T05:44:34.298Z,5.45
2023-06-29T05:47:01.133Z,5.15
2023-06-29T05:49:29.279Z,5.25
2023-06-29T05:51:56.096Z,4.70
2023-06-29T05:54:22.952Z,7.38
2023-06-29T05:56:49.815Z,4.85
2023-06-29T05:59:16.864Z,8.43
2023-06-29T06:01:43.828Z,5.07
2023-06-29T06:04:10.685Z,5.18
2023-06-29T06:06:40.906Z,5.95
2023-06-29T06:09:07.707Z,7.00
2023-06-29T06:11:34.554Z,6.47
2023-06-29T06:14:01.364Z,5.65
2023-06-29T06:16:28.172Z,5.03
2023-06-29T06:18:54.944Z,5.60
2023-06-29T06:21:21.820Z,5.70
2023-06-29T06:23:48.822Z,5.32
2023-06-29T06:26:15.912Z,4.82
2023-06-29T06:28:42.694Z,5.47
2023-06-29T06:31:17.487Z,5.28
2023-06-29T06:33:58.242Z,7.30
2023-06-29T06:36:28.035Z,6.75
2023-06-29T06:38:54.891Z,5.82
2023-06-29T06:41:21.660Z,6.93
2023-06-29T06:43:48.367Z,6.30
2023-06-29T06:46:15.121Z,6.03
2023-06-29T06:48:41.958Z,5.93
2023-06-29T06:51:08.715Z,5.70
2023-06-29T06:53:36.022Z,6.40
2023-06-29T06:56:03.006Z,6.03
2023-06-29T06:58:29.716Z,5.22
2023-06-29T07:00:56.686Z,7.55
2023-06-29T07:03:24.437Z,5.82
2023-06-29T07:05:51.280Z,7.32
2023-06-29T07:08:18.119Z,4.60
2023-06-29T07:10:44.999Z,7.03
2023-06-29T07:13:12.270Z,8.30
2023-06-29T07:15:39.270Z,5.80
2023-06-29T07:18:06.318Z,5.47
2023-06-29T07:25:32.731Z,6.07
2023-06-29T07:28:00.115Z,6.93
2023-06-29T07:30:26.912Z,5.88
2023-06-29T07:32:53.659Z,6.53
2023-06-29T07:35:20.491Z,5.90
2023-06-29T07:37:47.328Z,5.95
2023-06-29T07:40:14.105Z,7.78
2023-06-29T07:42:41.076Z,10.27
2023-06-29T07:45:08.323Z,8.30
2023-06-29T07:47:35.467Z,6.65
2023-06-29T07:50:02.528Z,5.25
2023-06-29T07:52:29.590Z,6.35
2023-06-29T07:54:56.317Z,7.90
2023-06-29T07:59:53.058Z,8.85
2023-06-29T08:02:21.868Z,6.43
2023-06-29T08:07:18.595Z,11.98
2023-06-29T08:09:45.562Z,6.70
2023-06-29T08:12:12.274Z,7.20
2023-06-29T08:14:39.245Z,6.93
2023-06-29T08:17:06.298Z,4.97
2023-06-29T08:19:33.553Z,7.18
2023-06-29T08:22:00.406Z,6.80
2023-06-29T08:24:27.255Z,6.90
2023-06-29T08:26:53.975Z,5.88
2023-06-29T08:29:21.215Z,5.10
2023-06-29T08:31:48.382Z,5.35
2023-06-29T08:34:15.621Z,9.45
2023-06-29T08:36:42.698Z,4.47
2023-06-29T08:39:09.949Z,5.07
2023-06-29T08:41:37.236Z,5.13
2023-06-29T08:44:05.605Z,5.45
2023-06-29T08:46:34.059Z,4.80
2023-06-29T08:49:02.061Z,8.10
2023-06-29T08:51:30.104Z,5.28
2023-06-29T08:53:57.585Z,5.45
2023-06-29T08:56:24.852Z,4.78
2023-06-29T08:58:52.526Z,5.28
2023-06-29T09:01:20.349Z,8.55
2023-06-29T09:03:48.757Z,5.07
2023-06-29T09:06:16.262Z,8.65
2023-06-29T09:08:43.183Z,5.82
2023-06-29T09:11:10.145Z,4.88
2023-06-29T09:13:37.758Z,3.97
2023-06-29T09:16:05.655Z,6.30
2023-06-29T09:18:33.921Z,3.83
2023-06-29T09:21:01.308Z,6.13
2023-06-29T09:23:30.393Z,3.63
2023-06-29T09:25:58.168Z,4.13
2023-06-29T09:28:25.488Z,4.07
2023-06-29T09:30:52.410Z,4.00
2023-06-29T09:33:20.379Z,3.95
2023-06-29T09:35:50.774Z,8.68
2023-06-29T09:38:18.483Z,5.30
2023-06-29T09:40:49.204Z,4.90
2023-06-29T09:43:19.794Z,6.05
2023-06-29T09:45:46.933Z,5.25
2023-06-29T09:50:52.870Z,5.15
2023-06-29T09:53:29.699Z,3.92
2023-06-29T09:56:00.150Z,3.53
2023-06-29T09:58:31.334Z,4.53
2023-06-29T10:01:00.346Z,3.85
2023-06-29T10:03:32.762Z,3.55
2023-06-29T10:06:04.688Z,3.13
2023-06-29T10:08:34.235Z,4.13
2023-06-29T10:11:04.764Z,4.07
2023-06-29T10:13:38.320Z,3.97
2023-06-29T10:16:10.202Z,4.57
2023-06-29T10:18:42.067Z,5.57
2023-06-29T10:21:09.497Z,3.97
2023-06-29T10:23:37.517Z,4.43
2023-06-29T10:26:05.744Z,3.97
2023-06-29T10:28:34.176Z,4.60
2023-06-29T10:31:01.261Z,3.50
2023-06-29T10:33:28.474Z,11.57
2023-06-29T10:36:00.018Z,3.10
2023-06-29T10:38:34.992Z,7.28
2023-06-29T10:41:02.287Z,4.18
2023-06-29T10:43:29.564Z,5.07
2023-06-29T10:45:56.375Z,6.68
2023-06-29T10:48:47.062Z,5.22
2023-06-29T10:51:15.561Z,10.63
2023-06-29T10:53:42.355Z,5.38
2023-06-29T10:56:30.748Z,4.10
2023-06-29T10:58:57.790Z,4.43
2023-06-29T11:01:25.138Z,5.18
2023-06-29T11:03:52.827Z,3.92
2023-06-29T11:06:33.065Z,3.67
2023-06-29T11:09:11.375Z,6.10
2023-06-29T11:11:38.485Z,4.43
2023-06-29T11:14:05.374Z,3.20
2023-06-29T11:16:33.959Z,7.63
2023-06-29T11:19:03.831Z,4.05
2023-06-29T11:21:31.017Z,7.18
2023-06-29T11:23:57.943Z,3.47
2023-06-29T11:26:25.777Z,4.82
2023-06-29T11:28:53.028Z,3.28
2023-06-29T11:31:20.881Z,5.60
2023-06-29T11:33:52.483Z,4.03
2023-06-29T11:36:34.872Z,6.05
2023-06-29T11:39:13.160Z,3.88
2023-06-29T11:41:42.163Z,3.47
2023-06-29T11:44:12.206Z,4.57
2023-06-29T11:46:46.656Z,3.55
2023-06-29T11:49:20.241Z,4.72
2023-06-29T11:51:48.001Z,4.85
2023-06-29T11:54:15.353Z,4.57
2023-06-29T11:56:45.367Z,5.35
2023-06-29T11:59:14.518Z,4.10
2023-06-29T12:01:41.331Z,3.72
2023-06-29T12:04:10.144Z,4.20
2023-06-29T12:06:37.640Z,4.07
2023-06-29T12:09:12.694Z,5.03
2023-06-29T12:11:40.849Z,6.72
2023-06-29T12:14:13.053Z,4.05
2023-06-29T12:19:13.524Z,4.30
2023-06-29T12:21:41.099Z,5.63
2023-06-29T12:24:08.466Z,4.75
2023-06-29T12:26:35.328Z,6.60
2023-06-29T12:29:02.074Z,5.38
2023-06-29T12:31:30.577Z,5.40
2023-06-29T12:33:58.214Z,5.60
2023-06-29T12:36:25.090Z,7.25
2023-06-29T12:38:52.363Z,4.53
2023-06-29T12:41:19.819Z,4.82
2023-06-29T12:43:48.514Z,7.32
2023-06-29T12:46:15.624Z,5.53
2023-06-29T12:48:45.215Z,4.70
2023-06-29T12:51:12.385Z,4.65
2023-06-29T12:53:40.153Z,6.47
2023-06-29T12:56:07.047Z,6.70
2023-06-29T12:58:34.601Z,4.72
2023-06-29T13:01:01.441Z,4.80
2023-06-29T13:03:28.482Z,6.75
2023-06-29T13:05:55.471Z,4.47
2023-06-29T13:08:22.594Z,5.30
2023-06-29T13:10:50.358Z,5.00
2023-06-29T13:13:17.210Z,4.90
2023-06-29T13:15:46.305Z,5.85
2023-06-29T13:18:13.513Z,5.15
2023-06-29T13:20:40.392Z,4.57
2023-06-29T13:23:07.175Z,4.78
2023-06-29T13:25:34.182Z,6.07
2023-06-29T13:28:00.928Z,6.20
2023-06-29T13:30:27.715Z,5.30
2023-06-29T13:32:54.593Z,6.43
2023-06-29T13:35:23.129Z,7.03
2023-06-29T13:37:49.991Z,4.50
2023-06-29T13:40:16.933Z,6.57
2023-06-29T13:42:43.966Z,5.53
2023-06-29T13:45:10.992Z,6.70
2023-06-29T13:47:42.553Z,7.28
2023-06-29T13:50:10.184Z,5.82
2023-06-29T13:52:37.046Z,4.88
2023-06-29T13:55:04.508Z,6.22
2023-06-29T13:57:31.404Z,6.43
2023-06-29T13:59:58.279Z,5.15
2023-06-29T14:02:25.249Z,6.30
2023-06-29T14:04:52.486Z,7.53
2023-06-29T14:07:22.876Z,5.07
2023-06-29T14:09:49.758Z,5.72
2023-06-29T14:12:16.499Z,5.75
2023-06-29T14:14:45.699Z,5.78
2023-06-29T14:17:13.890Z,7.38
2023-06-29T14:19:40.702Z,5.65
2023-06-29T14:22:07.543Z,7.95
2023-06-29T14:24:34.385Z,6.18
2023-06-29T14:27:01.173Z,4.95
2023-06-29T14:29:27.896Z,5.68
2023-06-29T14:31:54.858Z,7.38
2023-06-29T14:34:21.688Z,5.32
2023-06-29T14:36:48.565Z,5.70
2023-06-29T14:39:15.688Z,4.50
2023-06-29T14:41:56.646Z,4.90
2023-06-29T14:44:24.569Z,5.22
2023-06-29T14:46:52.278Z,5.75
2023-06-29T14:49:19.302Z,5.15
2023-06-29T14:51:46.253Z,5.03
2023-06-29T14:54:13.082Z,5.55
2023-06-29T14:56:40.076Z,5.63
2023-06-29T14:59:07.034Z,7.00
2023-06-29T15:01:34.331Z,7.38
2023-06-29T15:04:01.684Z,5.05
2023-06-29T15:06:28.603Z,5.13
2023-06-29T15:08:55.620Z,5.93
2023-06-29T15:11:22.765Z,5.20
2023-06-29T15:13:49.603Z,7.10
2023-06-29T15:16:16.340Z,5.38
2023-06-29T15:18:50.720Z,5.25
2023-06-29T15:21:25.509Z,5.32
2023-06-29T15:23:52.404Z,4.75
2023-06-29T15:26:19.239Z,5.10
2023-06-29T15:28:45.998Z,5.90
2023-06-29T15:31:12.807Z,6.35
2023-06-29T15:33:39.638Z,4.70
2023-06-29T15:36:06.398Z,5.18
2023-06-29T15:38:34.913Z,5.65
2023-06-29T15:41:01.661Z,6.07
2023-06-29T15:43:28.520Z,6.13
2023-06-29T15:45:55.560Z,4.35
2023-06-29T15:48:22.391Z,6.03
2023-06-29T15:50:49.157Z,5.18
2023-06-29T15:53:18.443Z,4.75
2023-06-29T15:55:45.496Z,5.47
2023-06-29T15:58:12.662Z,5.03
2023-06-29T16:00:39.830Z,7.05
2023-06-29T16:03:06.953Z,6.03
2023-06-29T16:05:35.863Z,6.32
2023-06-29T16:08:03.571Z,5.35
2023-06-29T16:10:30.428Z,5.40
2023-06-29T16:12:57.810Z,8.05
2023-06-29T16:15:24.602Z,4.90
2023-06-29T16:17:51.540Z,7.22
2023-06-29T16:20:18.389Z,6.55
2023-06-29T16:22:45.334Z,5.85
2023-06-29T16:25:12.286Z,5.80
2023-06-29T16:27:39.281Z,5.97
2023-06-29T16:30:07.547Z,5.55
2023-06-29T16:32:34.494Z,5.40
2023-06-29T16:35:01.507Z,7.57
2023-06-29T16:37:28.278Z,8.05
2023-06-29T16:39:55.044Z,6.28
2023-06-29T16:42:21.854Z,7.70
2023-06-29T16:44:48.578Z,6.00
2023-06-29T16:47:15.369Z,6.07
2023-06-29T16:49:42.231Z,5.38
2023-06-29T16:52:09.428Z,5.93
2023-06-29T16:54:36.320Z,6.63
2023-06-29T16:57:03.160Z,6.13
2023-06-29T16:59:30.505Z,10.93
2023-06-29T17:01:57.769Z,5.50
2023-06-29T17:04:26.071Z,9.60
2023-06-29T17:06:53.006Z,6.18
2023-06-29T17:09:19.832Z,5.80
2023-06-29T17:11:46.635Z,6.75
2023-06-29T17:14:13.663Z,9.32
2023-06-29T17:16:40.749Z,5.88
2023-06-29T17:19:07.674Z,8.88
2023-06-29T17:21:34.406Z,5.88
2023-06-29T17:24:01.936Z,6.15
2023-06-29T17:26:28.971Z,6.40
2023-06-29T17:28:56.007Z,5.75
2023-06-29T17:31:22.836Z,9.00
2023-06-29T17:33:54.875Z,5.78
2023-06-29T17:36:23.278Z,7.53
2023-06-29T17:38:50.391Z,6.43
2023-06-29T17:41:17.356Z,5.72
2023-06-29T17:43:44.136Z,6.55
2023-06-29T17:46:11.226Z,6.65
2023-06-29T17:48:38.040Z,5.68
2023-06-29T17:51:19.127Z,6.32
2023-06-29T17:53:47.265Z,5.85
2023-06-29T17:56:15.815Z,6.28
2023-06-29T17:58:47.068Z,5.88
2023-06-29T18:01:14.636Z,5.68
2023-06-29T18:03:42.583Z,5.63
2023-06-29T18:06:10.593Z,6.93
2023-06-29T18:08:37.468Z,7.90
2023-06-29T18:11:04.638Z,6.95
2023-06-29T18:13:31.424Z,7.68
2023-06-29T18:15:58.277Z,6.03
2023-06-29T18:18:25.128Z,6.60
2023-06-29T18:20:51.835Z,9.48
2023-06-29T18:23:18.686Z,10.82
2023-06-29T18:25:45.685Z,7.30
2023-06-29T18:28:12.984Z,9.80
2023-06-29T18:30:45.354Z,6.78
2023-06-29T18:33:12.319Z,6.85
2023-06-29T18:35:39.175Z,9.00
2023-06-29T18:38:05.883Z,8.27
2023-06-29T18:40:32.616Z,6.25
2023-06-29T18:42:59.625Z,9.65
2023-06-29T18:45:29.973Z,7.43
2023-06-29T18:47:57.736Z,8.60
2023-06-29T18:50:24.581Z,6.22
2023-06-29T18:52:52.200Z,6.35
2023-06-29T18:55:19.074Z,7.70
2023-06-29T18:57:45.997Z,10.07
2023-06-29T19:00:13.183Z,9.65
2023-06-29T19:02:43.236Z,10.85
2023-06-29T19:05:11.414Z,13.13
2023-06-29T19:07:38.434Z,12.80
2023-06-29T19:10:05.688Z,9.73
2023-06-29T19:12:32.515Z,9.60
2023-06-29T19:14:59.212Z,9.93
2023-06-29T19:17:26.136Z,9.95
2023-06-29T19:19:53.146Z,12.50
2023-06-29T19:22:19.928Z,10.30
2023-06-29T19:24:46.629Z,7.50
2023-06-29T19:27:13.991Z,8.32
2023-06-29T19:29:40.829Z,7.20
2023-06-29T19:32:08.296Z,9.02
2023-06-29T19:34:35.200Z,7.90
2023-06-29T19:37:02.212Z,6.47
2023-06-29T19:39:29.025Z,7.10
2023-06-29T19:41:55.925Z,9.38
2023-06-29T19:44:22.746Z,7.93
2023-06-29T19:46:49.689Z,6.70
2023-06-29T19:49:16.710Z,7.95
2023-06-29T19:51:44.462Z,6.60
2023-06-29T19:54:11.227Z,7.32
2023-06-29T19:56:39.433Z,7.38
2023-06-29T19:59:06.261Z,6.95
2023-06-29T20:01:33.084Z,7.47
2023-06-29T20:04:00.072Z,7.82
2023-06-29T20:06:26.951Z,8.77
2023-06-29T20:08:53.758Z,7.65
2023-06-29T20:11:20.519Z,7.60
2023-06-29T20:13:47.285Z,9.40
2023-06-29T20:16:14.179Z,6.25
2023-06-29T20:18:40.984Z,6.45
2023-06-29T20:21:07.791Z,7.22
2023-06-29T20:23:34.480Z,9.00
2023-06-29T20:26:01.552Z,9.52
2023-06-29T20:28:28.435Z,7.95
2023-06-29T20:30:55.499Z,7.55
2023-06-29T20:33:22.236Z,9.60
2023-06-29T20:35:48.968Z,7.15
2023-06-29T20:38:15.801Z,10.50
2023-06-29T20:40:45.107Z,6.97
2023-06-29T20:43:14.401Z,11.38
2023-06-29T20:45:45.268Z,9.38
2023-06-29T20:48:12.591Z,12.45
2023-06-29T20:50:39.585Z,11.98
2023-06-29T20:53:07.129Z,11.57
2023-06-29T20:55:33.865Z,13.55
2023-06-29T20:58:00.768Z,9.55
2023-06-29T21:00:27.563Z,11.98
2023-06-29T21:02:54.341Z,11.30
2023-06-29T21:05:22.627Z,11.82
2023-06-29T21:07:52.270Z,8.35
2023-06-29T21:10:19.210Z,10.45
2023-06-29T21:12:46.314Z,7.30
2023-06-29T21:15:13.614Z,8.63
2023-06-29T21:17:40.555Z,11.23
2023-06-29T21:20:09.338Z,7.47
2023-06-29T21:22:36.721Z,8.25
2023-06-29T21:25:04.053Z,8.48
2023-06-29T21:27:32.165Z,8.73
2023-06-29T21:29:59.106Z,9.60
2023-06-29T21:32:26.031Z,8.13
2023-06-29T21:34:53.065Z,10.35
2023-06-29T21:37:21.065Z,10.50
2023-06-29T21:39:48.140Z,10.45
2023-06-29T21:42:14.950Z,7.18
2023-06-29T21:44:42.765Z,10.10
2023-06-29T21:47:09.793Z,8.07
2023-06-29T21:49:36.958Z,7.60
2023-06-29T21:52:03.985Z,8.15
2023-06-29T21:54:30.750Z,8.35
2023-06-29T21:56:57.511Z,7.05
2023-06-29T21:59:24.368Z,7.07
2023-06-29T22:01:51.444Z,7.43
2023-06-29T22:04:18.329Z,8.10
2023-06-29T22:06:45.071Z,7.50
2023-06-29T22:09:11.897Z,7.78
2023-06-29T22:11:41.168Z,8.65
2023-06-29T22:14:17.519Z,7.35
2023-06-29T22:16:44.862Z,7.03
2023-06-29T22:19:11.768Z,8.15
2023-06-29T22:21:38.850Z,6.63
2023-06-29T22:24:05.765Z,8.27
2023-06-29T22:26:33.524Z,8.27
2023-06-29T22:29:00.602Z,8.02
2023-06-29T22:31:28.047Z,8.80
2023-06-29T22:33:55.019Z,7.97
2023-06-29T22:36:22.604Z,8.15
2023-06-29T22:38:49.383Z,8.23
2023-06-29T22:41:16.661Z,7.90
2023-06-29T22:43:43.451Z,11.57
2023-06-29T22:46:11.084Z,10.98
2023-06-29T22:48:38.351Z,10.20
2023-06-29T22:51:06.037Z,10.77
2023-06-29T22:53:32.903Z,9.60
2023-06-29T22:55:59.622Z,8.40
2023-06-29T22:58:28.104Z,9.85
2023-06-29T23:00:55.874Z,13.15
2023-06-29T23:03:23.719Z,10.40
2023-06-29T23:05:50.751Z,9.38
2023-06-29T23:08:17.750Z,9.13
2023-06-29T23:10:47.522Z,9.07
2023-06-29T23:13:17.857Z,8.52
2023-06-29T23:15:46.245Z,8.93
2023-06-29T23:18:13.908Z,9.18
2023-06-29T23:20:44.627Z,10.05
2023-06-29T23:23:13.794Z,10.10
2023-06-29T23:25:42.764Z,8.60
2023-06-29T23:28:09.697Z,9.02
2023-06-29T23:30:36.778Z,9.80
2023-06-29T23:33:03.863Z,12.15
2023-06-29T23:35:30.784Z,10.90
2023-06-29T23:37:57.602Z,10.43
2023-06-29T23:40:26.963Z,9.90
2023-06-29T23:42:54.265Z,10.10
2023-06-29T23:45:22.657Z,9.73
2023-06-29T23:47:50.540Z,10.45
2023-06-29T23:50:19.858Z,9.10
2023-06-29T23:52:46.969Z,10.38
2023-06-29T23:55:13.908Z,13.85
2023-06-29T23:57:42.069Z,10.70
